This is the latest recevied weather packets stored in our database for station/object KJ6HT. If no packets are shown the sender has not sent any weather packets the latest 10 day(s).
| Time | Temp. | Humidity | Pressure | Rain* | Wind** | Luminosity | Snow |
|---|---|---|---|---|---|---|---|
| 1788201073 | 28.89° C | 58% | 1011.9 hPa | 0 mm | - | - | - |
| 1788200133 | 28.33° C | 61% | 1011.9 hPa | 0 mm | - | - | - |
| 1788199204 | 27.78° C | 62% | 1011.9 hPa | 0 mm | - | - | - |
| 1788198379 | 27.22° C | 65% | 1012 hPa | 0 mm | - | - | - |
| 1788197420 | 27.22° C | 67% | 1011.9 hPa | 0 mm | - | - | - |
| 1788196564 | 26.11° C | 69% | 1012 hPa | 0 mm | - | - | - |
| 1788195633 | 25.56° C | 72% | 1011.8 hPa | 0 mm | - | - | - |
| 1788194774 | 26.11° C | 69% | 1011.7 hPa | 0 mm | - | - | - |
| 1788193867 | 25.56° C | 71% | 1011.7 hPa | 0 mm | - | - | - |
| 1788192962 | 25.56° C | 72% | 1011.7 hPa | 0 mm | - | - | - |
| 1788192016 | 23.89° C | 76% | 1011.7 hPa | 0 mm | - | - | - |
| 1788191176 | 23.89° C | 78% | 1011.7 hPa | 0 mm | - | - | - |
| 1788190275 | 22.78° C | 81% | 1011.8 hPa | 0 mm | - | - | - |
| 1788189325 | 22.78° C | 82% | 1011.8 hPa | 0 mm | - | - | - |
| 1788188491 | 22.22° C | 83% | 1011.7 hPa | 0 mm | - | - | - |
| 1788187558 | 22.22° C | 85% | 1011.6 hPa | 0 mm | - | - | - |
| 1788186610 | 21.67° C | 86% | 1011.5 hPa | 0 mm | - | - | - |
| 1788185773 | 21.11° C | 90% | 1011.3 hPa | 0 mm | - | - | - |
| 1788184812 | 20° C | 92% | 1011.1 hPa | 0 mm | - | - | - |
| 1788183974 | 19.44° C | 92% | 1010.9 hPa | 0 mm | - | - | - |
| 1788183015 | 19.44° C | 92% | 1010.8 hPa | 0 mm | - | - | - |
| 1788182107 | 19.44° C | 91% | 1010.7 hPa | 0 mm | - | - | - |
| 1788181262 | 19.44° C | 91% | 1010.6 hPa | 0 mm | - | - | - |
| 1788180314 | 19.44° C | 91% | 1010.4 hPa | 0 mm | - | - | - |
| 1788179473 | 20° C | 90% | 1010.4 hPa | 0 mm | - | - | - |
* Rain latest hour (hover to see other rain measurements)
** Current wind speed in m/s (hover to see current wind gust speed)